Links Sitemap Venhuizerweer voor mobiel

AMSTERDAM SCHIPHOL:
Amsterdam Airport Schiphol, Netherlands (EHAM) 52-18N 004-46E -2M
Apr 02, 2020 - 01:55 PM EDT / 2020.04.02 1755 UTC
Wind: from the WSW (240 degrees) at 16 MPH (14 KT):0
Visibility: greater than 7 mile(s):0
Sky conditions: partly cloudy
Weather: Towering cumulus clouds observed
Temperature: 48 F (9 C)
Dew Point: 39 F (4 C)
Relative Humidity: 70%
Pressure (altimeter): 29.83 in. Hg (1010 hPa)
ob: EHAM 021755Z 24014KT 9999 FEW035 SCT045 09/04 Q1010 TEMPO 7000 -SHRA FEW020TCU
cycle: 18
DEELEN:
Deelen, Netherlands (EHDL) 52-04N 005-53E 52M
Apr 02, 2020 - 01:55 PM EDT / 2020.04.02 1755 UTC
Wind: from the SW (230 degrees) at 13 MPH (11 KT) (direction variable):0
Visibility: greater than 7 mile(s):0
Sky conditions: overcast
Temperature: 48 F (9 C)
Dew Point: 37 F (3 C)
Relative Humidity: 66%
Pressure (altimeter): 29.83 in. Hg (1010 hPa)
ob: EHDL 021755Z AUTO 23011KT 170V300 9999 SCT027 BKN031 OVC036 09/03 Q1010 BLU
cycle: 18
DE KOOY:
De Kooy, Netherlands (EHKD) 52-55N 004-47E 14M
Apr 02, 2020 - 01:55 PM EDT / 2020.04.02 1755 UTC
Wind: from the WSW (240 degrees) at 17 MPH (15 KT) (direction variable):0
Visibility: greater than 7 mile(s):0
Sky conditions: mostly cloudy
Temperature: 46 F (8 C)
Dew Point: 42 F (6 C)
Relative Humidity: 87%
Pressure (altimeter): 29.80 in. Hg (1009 hPa)
ob: EHKD 021755Z AUTO 24015KT 210V270 9999 FEW026 BKN030 BKN036 08/06 Q1009 BLU 24015G28KT 9999 BKN035
cycle: 18
EELDE:
Groningen Airport Eelde, Netherlands (EHGG) 53-08N 006-35E 4M
Apr 02, 2020 - 01:55 PM EDT / 2020.04.02 1755 UTC
Wind: from the WSW (250 degrees) at 15 MPH (13 KT):0
Visibility: greater than 7 mile(s):0
Sky conditions: overcast
Temperature: 46 F (8 C)
Dew Point: 41 F (5 C)
Relative Humidity: 81%
Pressure (altimeter): 29.77 in. Hg (1008 hPa)
ob: EHGG 021755Z AUTO 25013KT 9999 BKN021 OVC024 08/05 Q1008 NOSIG
cycle: 18
EINDHOVEN:
Eindhoven, Netherlands (EHEH) 51-27N 005-25E 28M
Apr 02, 2020 - 01:55 PM EDT / 2020.04.02 1755 UTC
Wind: from the SW (230 degrees) at 12 MPH (10 KT) (direction variable):0
Visibility: greater than 7 mile(s):0
Sky conditions: overcast
Temperature: 48 F (9 C)
Dew Point: 33 F (1 C)
Relative Humidity: 57%
Pressure (altimeter): 29.88 in. Hg (1012 hPa)
ob: EHEH 021755Z AUTO 23010KT 200V260 9999 OVC053 09/01 Q1012 BLU
cycle: 18
GILZE-RIJEN:
Gilze-Rijen, Netherlands (EHGR) 51-34N 004-56E 24M
Apr 02, 2020 - 01:55 PM EDT / 2020.04.02 1755 UTC
Wind: from the WSW (240 degrees) at 8 MPH (7 KT) (direction variable):0
Visibility: greater than 7 mile(s):0
Sky conditions: overcast
Temperature: 48 F (9 C)
Dew Point: 35 F (2 C)
Relative Humidity: 61%
Pressure (altimeter): 29.88 in. Hg (1012 hPa)
ob: EHGR 021755Z AUTO 24007KT 220V280 9999 OVC054 09/02 Q1012 BLU 27010KT 9999 SCT045 TEMPO BKN040
cycle: 18
LEEUWARDEN:
Leeuwarden, Netherlands (EHLW) 53-13N 005-46E 11M
Apr 02, 2020 - 01:55 PM EDT / 2020.04.02 1755 UTC
Wind: from the WSW (250 degrees) at 22 MPH (19 KT):0
Visibility: greater than 7 mile(s):0
Sky conditions: overcast
Temperature: 46 F (8 C)
Dew Point: 42 F (6 C)
Relative Humidity: 87%
Pressure (altimeter): 29.77 in. Hg (1008 hPa)
ob: EHLW 021755Z AUTO 25019KT 9999 FEW058 OVC065 08/06 Q1008 BLU
cycle: 18
MAASTRICHT:
Maastricht Airport Zuid Limburg, Netherlands (EHBK) 50-55N 005-47E 116M
Apr 02, 2020 - 01:55 PM EDT / 2020.04.02 1755 UTC
Wind: from the W (280 degrees) at 7 MPH (6 KT) (direction variable):0
Visibility: greater than 7 mile(s):0
Sky conditions: overcast
Temperature: 46 F (8 C)
Dew Point: 33 F (1 C)
Relative Humidity: 61%
Pressure (altimeter): 29.91 in. Hg (1013 hPa)
ob: EHBK 021755Z AUTO 28006KT 250V350 9999 OVC035 08/01 Q1013 NOSIG
cycle: 18
ROTTERDAM ZESTIENHOVEN:
Rotterdam Airport Zestienhoven, Netherlands (EHRD) 51-57N 004-27E -4M
Apr 02, 2020 - 01:55 PM EDT / 2020.04.02 1755 UTC
Wind: from the WSW (240 degrees) at 16 MPH (14 KT) (direction variable):0
Visibility: greater than 7 mile(s):0
Sky conditions: mostly cloudy
Temperature: 48 F (9 C)
Dew Point: 39 F (4 C)
Relative Humidity: 70%
Pressure (altimeter): 29.85 in. Hg (1011 hPa)
ob: EHRD 021755Z AUTO 24014KT 210V270 9999 BKN038 BKN043 BKN047 09/04 Q1011 NOSIG
cycle: 18
SOESTERBERG:
Soesterberg, Netherlands (EHSB) 52-08N 005-17E 25M
Nov 20, 2008 - 04:25 AM EST / 2008.11.20 0925 UTC
Wind: from the W (280 degrees) at 16 MPH (14 KT):0
Visibility: greater than 7 mile(s):0
Temperature: 51 F (11 C)
Dew Point: 48 F (9 C)
Relative Humidity: 87%
Pressure (altimeter): 29.83 in. Hg (1010 hPa)
ob: EHSB 200925Z AUTO 28014KT 9999 // 11/09 Q1010
cycle: 9
TWENTE:
Twenthe, Netherlands (EHTW) 52-16N 006-54E 57M
Apr 07, 2008 - 08:25 AM EDT / 2008.04.07 1225 UTC
Wind: from the N (010 degrees) at 7 MPH (6 KT):0
Sky conditions: mostly cloudy
Temperature: 46 F (8 C)
Dew Point: 24 F (-4 C)
Relative Humidity: 42%
Pressure (altimeter): 29.59 in. Hg (1002 hPa)
ob: EHTW 071225Z AUTO 01006KT //// // BKN200/// 08/M04 Q1002 RE//
cycle: 12
VALKENBURG:
Valkenburg, Netherlands (EHVB) 52-11N 004-25E 2M
Apr 01, 2010 - 03:55 AM EDT / 2010.04.01 0755 UTC
Wind: from the WSW (250 degrees) at 20 MPH (17 KT):0
Sky conditions: mostly cloudy
Temperature: 41 F (5 C)
Dew Point: 33 F (1 C)
Relative Humidity: 75%
Pressure (altimeter): 29.62 in. Hg (1003 hPa)
ob: EHVB 010755Z AUTO 25017KT 9999NDV FEW021/// BKN037/// 05/01 Q1003 BLU
cycle: 8
VLIELAND:
Vlieland, Netherlands (EHVL) 53-15N 004-55E 12M
Apr 02, 2020 - 01:55 PM EDT / 2020.04.02 1755 UTC
Wind: from the WSW (250 degrees) at 22 MPH (19 KT):0
Visibility: 4 mile(s):0
Sky conditions: overcast
Weather: mist
Temperature: 46 F (8 C)
Dew Point: 42 F (6 C)
Relative Humidity: 87%
Pressure (altimeter): 29.77 in. Hg (1008 hPa)
ob: EHVL 021755Z AUTO 25019KT 7000 BR SCT055 OVC061 08/06 Q1008 WHT
cycle: 18
VOLKEL:
Volkel, Netherlands (EHVK) 51-39N 005-42E 21M
Apr 02, 2020 - 01:55 PM EDT / 2020.04.02 1755 UTC
Wind: from the WSW (240 degrees) at 12 MPH (10 KT):0
Visibility: greater than 7 mile(s):0
Sky conditions: mostly cloudy
Temperature: 46 F (8 C)
Dew Point: 35 F (2 C)
Relative Humidity: 65%
Pressure (altimeter): 29.85 in. Hg (1011 hPa)
ob: EHVK 021755Z AUTO 24010KT 9999 SCT052 BKN058 08/02 Q1011 BLU
cycle: 18
WOENSDRECHT:
Woensdrecht, Netherlands (EHWO) 51-27N 004-20E 17M
Apr 02, 2020 - 01:55 PM EDT / 2020.04.02 1755 UTC
Wind: from the WSW (240 degrees) at 10 MPH (9 KT):0
Visibility: greater than 7 mile(s):0
Sky conditions: overcast
Temperature: 48 F (9 C)
Dew Point: 37 F (3 C)
Relative Humidity: 66%
Pressure (altimeter): 29.88 in. Hg (1012 hPa)
ob: EHWO 021755Z AUTO 24009KT 9999 BKN055 OVC061 09/03 Q1012 BLU
cycle: 18
Copyright © 2005 - 2020 Venhuizerweer - Alle Rechten Voorbehouden


3.235.77.252